createdAt,value
2019-05-17T00:00:27.358Z,11.30
2019-05-17T00:01:31.779Z,11.20
2019-05-17T00:02:37.572Z,11.20
2019-05-17T00:03:42.406Z,11.20
2019-05-17T00:04:47.902Z,11.20
2019-05-17T00:05:52.922Z,11.20
2019-05-17T00:06:58.154Z,11.20
2019-05-17T00:08:03.181Z,11.20
2019-05-17T00:09:08.751Z,11.20
2019-05-17T00:10:14.020Z,11.20
2019-05-17T00:11:19.550Z,11.20
2019-05-17T00:12:24.211Z,11.20
2019-05-17T00:13:29.450Z,11.20
2019-05-17T00:14:36.482Z,11.20
2019-05-17T00:15:41.706Z,11.20
2019-05-17T00:16:47.021Z,11.20
2019-05-17T00:17:52.655Z,11.20
2019-05-17T00:18:57.555Z,11.20
2019-05-17T00:20:03.013Z,11.20
2019-05-17T00:21:07.882Z,11.20
2019-05-17T00:22:16.743Z,11.20
2019-05-17T00:23:27.771Z,11.20
2019-05-17T00:24:34.190Z,11.20
2019-05-17T00:25:41.615Z,11.20
2019-05-17T00:26:49.669Z,11.10
2019-05-17T00:27:56.289Z,11.20
2019-05-17T00:29:03.681Z,11.20
2019-05-17T00:30:09.297Z,11.20
2019-05-17T00:31:20.322Z,11.20
2019-05-17T00:32:27.291Z,11.20
2019-05-17T00:33:32.973Z,11.10
2019-05-17T00:34:40.765Z,11.10
2019-05-17T00:35:46.863Z,11.10
2019-05-17T00:36:51.803Z,11.20
2019-05-17T00:37:57.191Z,11.10
2019-05-17T00:39:02.180Z,11.10
2019-05-17T00:40:08.273Z,11.20
2019-05-17T00:41:13.021Z,11.10
2019-05-17T00:42:18.375Z,11.20
2019-05-17T00:43:23.133Z,11.10
2019-05-17T00:44:28.719Z,11.10
2019-05-17T00:45:33.720Z,11.10
2019-05-17T00:46:39.006Z,11.20
2019-05-17T00:47:43.705Z,11.10
2019-05-17T00:48:48.888Z,11.10
2019-05-17T00:49:53.722Z,11.10
2019-05-17T00:51:01.977Z,11.10
2019-05-17T00:52:07.388Z,11.10
2019-05-17T00:53:16.381Z,11.10
2019-05-17T00:54:21.233Z,11.10
2019-05-17T00:55:26.872Z,11.10
2019-05-17T00:56:31.569Z,11.10
2019-05-17T00:57:37.265Z,11.10
2019-05-17T00:58:41.866Z,11.10
2019-05-17T00:59:47.677Z,11.10
2019-05-17T01:00:52.587Z,11.10
2019-05-17T01:01:57.865Z,11.10
2019-05-17T01:03:02.521Z,11.10
2019-05-17T01:04:07.912Z,11.10
2019-05-17T01:05:12.665Z,11.10
2019-05-17T01:06:17.913Z,11.10
2019-05-17T01:07:23.065Z,11.10
2019-05-17T01:08:28.316Z,11.10
2019-05-17T01:09:33.023Z,11.10
2019-05-17T01:10:38.321Z,11.10
2019-05-17T01:11:43.020Z,11.00
2019-05-17T01:12:48.585Z,11.00
2019-05-17T01:13:55.795Z,11.10
2019-05-17T01:15:02.189Z,11.00
2019-05-17T01:16:09.861Z,11.10
2019-05-17T01:17:16.531Z,11.10
2019-05-17T01:18:21.649Z,11.10
2019-05-17T01:19:27.108Z,11.10
2019-05-17T01:20:36.989Z,11.10
2019-05-17T01:21:42.097Z,11.10
2019-05-17T01:22:52.827Z,11.10
2019-05-17T01:23:57.903Z,11.10
2019-05-17T01:25:02.944Z,11.10
2019-05-17T01:26:08.198Z,11.10
2019-05-17T01:27:13.015Z,11.10
2019-05-17T01:28:18.865Z,11.10
2019-05-17T01:29:23.781Z,11.10
2019-05-17T01:30:29.065Z,11.10
2019-05-17T01:31:33.893Z,11.10
2019-05-17T01:32:39.310Z,11.00
2019-05-17T01:33:44.022Z,11.00
2019-05-17T01:34:49.293Z,11.00
2019-05-17T01:35:54.257Z,11.00
2019-05-17T01:36:59.542Z,11.00
2019-05-17T01:38:07.042Z,11.00
2019-05-17T01:39:17.275Z,11.00
2019-05-17T01:40:18.769Z,11.00
2019-05-17T01:41:24.012Z,11.00
2019-05-17T01:42:28.856Z,11.00
2019-05-17T01:43:34.144Z,11.00
2019-05-17T01:44:39.117Z,11.00
2019-05-17T01:45:44.315Z,11.00
2019-05-17T01:46:48.981Z,11.00
2019-05-17T01:47:56.232Z,11.00
2019-05-17T01:49:00.493Z,11.00
2019-05-17T01:50:06.942Z,11.00
2019-05-17T01:51:11.768Z,11.00
2019-05-17T01:52:16.984Z,11.00
2019-05-17T01:53:21.849Z,11.00
2019-05-17T01:54:27.194Z,11.00
2019-05-17T01:55:32.476Z,11.00
2019-05-17T01:56:38.099Z,11.00
2019-05-17T01:57:42.742Z,11.00
2019-05-17T01:58:48.013Z,11.00
2019-05-17T01:59:52.883Z,11.00
2019-05-17T02:00:59.107Z,11.00
2019-05-17T02:02:07.183Z,11.00
2019-05-17T02:03:12.611Z,11.00
2019-05-17T02:04:17.449Z,11.00
2019-05-17T02:05:22.919Z,11.00
2019-05-17T02:06:27.721Z,11.00
2019-05-17T02:07:33.226Z,11.00
2019-05-17T02:08:40.943Z,11.00
2019-05-17T02:09:49.074Z,11.00
2019-05-17T02:10:54.190Z,11.00
2019-05-17T02:11:59.816Z,11.00
2019-05-17T02:13:06.539Z,11.00
2019-05-17T02:14:11.617Z,11.00
2019-05-17T02:15:17.196Z,11.00
2019-05-17T02:16:22.415Z,11.00
2019-05-17T02:17:27.229Z,11.00
2019-05-17T02:18:32.828Z,10.90
2019-05-17T02:19:40.589Z,10.90
2019-05-17T02:20:46.510Z,11.00
2019-05-17T02:21:51.176Z,11.00
2019-05-17T02:22:56.869Z,11.00
2019-05-17T02:24:01.829Z,11.00
2019-05-17T02:25:08.091Z,11.00
2019-05-17T02:26:13.061Z,11.00
2019-05-17T02:27:18.495Z,11.00
2019-05-17T02:28:23.145Z,11.00
2019-05-17T02:29:28.964Z,11.00
2019-05-17T02:30:34.397Z,10.90
2019-05-17T02:31:43.240Z,10.90
2019-05-17T02:32:47.340Z,10.90
2019-05-17T02:33:53.472Z,10.90
2019-05-17T02:34:58.713Z,10.90
2019-05-17T02:36:04.133Z,10.90
2019-05-17T02:37:08.735Z,11.00
2019-05-17T02:38:14.428Z,10.90
2019-05-17T02:39:19.511Z,10.90
2019-05-17T02:40:24.842Z,10.90
2019-05-17T02:41:29.547Z,11.00
2019-05-17T02:42:34.819Z,11.00
2019-05-17T02:43:39.498Z,11.00
2019-05-17T02:44:44.788Z,10.90
2019-05-17T02:45:52.497Z,10.90
2019-05-17T02:46:56.649Z,10.90
2019-05-17T02:48:03.788Z,10.90
2019-05-17T02:49:08.519Z,10.90
2019-05-17T02:50:14.189Z,10.90
2019-05-17T02:51:19.393Z,10.90
2019-05-17T02:52:28.126Z,10.90
2019-05-17T02:53:33.904Z,10.90
2019-05-17T02:54:38.736Z,10.90
2019-05-17T02:55:44.187Z,10.90
2019-05-17T02:56:48.791Z,10.90
2019-05-17T02:57:54.050Z,10.90
2019-05-17T02:58:58.730Z,10.90
2019-05-17T03:00:05.622Z,10.90
2019-05-17T03:01:12.659Z,10.90
2019-05-17T03:02:17.088Z,10.90
2019-05-17T03:03:23.690Z,10.90
2019-05-17T03:04:28.841Z,10.90
2019-05-17T03:05:34.135Z,10.90
2019-05-17T03:06:39.498Z,10.90
2019-05-17T03:07:44.376Z,10.90
2019-05-17T03:08:52.281Z,10.90
2019-05-17T03:10:12.350Z,10.90
2019-05-17T03:11:03.559Z,10.90
2019-05-17T03:12:08.539Z,10.80
2019-05-17T03:13:17.754Z,10.80
2019-05-17T03:14:22.808Z,10.80
2019-05-17T03:15:27.026Z,10.80
2019-05-17T03:16:33.817Z,10.80
2019-05-17T03:17:38.990Z,10.80
2019-05-17T03:18:44.000Z,10.80
2019-05-17T03:19:52.697Z,10.80
2019-05-17T03:20:55.998Z,10.80
2019-05-17T03:22:06.753Z,10.80
2019-05-17T03:23:07.853Z,10.80
2019-05-17T03:24:13.849Z,10.80
2019-05-17T03:25:18.643Z,10.80
2019-05-17T03:26:23.833Z,10.80
2019-05-17T03:27:29.926Z,10.80
2019-05-17T03:28:35.326Z,10.80
2019-05-17T03:29:42.555Z,10.80
2019-05-17T03:30:47.564Z,10.80
2019-05-17T03:31:59.464Z,10.80
2019-05-17T03:33:06.651Z,10.80
2019-05-17T03:34:07.887Z,10.80
2019-05-17T03:35:16.726Z,10.80
2019-05-17T03:36:25.542Z,10.80
2019-05-17T03:37:33.062Z,10.80
2019-05-17T03:38:33.674Z,10.80
2019-05-17T03:39:42.575Z,10.80
2019-05-17T03:41:07.904Z,10.80
2019-05-17T03:41:55.395Z,10.70
2019-05-17T03:43:02.671Z,10.80
2019-05-17T03:44:06.914Z,10.70
2019-05-17T03:45:13.800Z,10.80
2019-05-17T03:46:22.948Z,10.70
2019-05-17T03:47:26.109Z,10.80
2019-05-17T03:48:33.267Z,10.80
2019-05-17T03:49:39.562Z,10.80
2019-05-17T03:52:35.308Z,10.80
2019-05-17T03:53:43.869Z,10.80
2019-05-17T03:54:47.376Z,10.80
2019-05-17T03:55:55.609Z,10.80
2019-05-17T03:57:02.913Z,10.80
2019-05-17T03:58:07.047Z,10.80
2019-05-17T03:59:12.921Z,10.70
2019-05-17T04:00:18.683Z,10.70
2019-05-17T04:01:23.457Z,10.70
2019-05-17T04:02:28.656Z,10.70
2019-05-17T04:03:35.478Z,10.70
2019-05-17T04:04:42.898Z,10.70
2019-05-17T04:05:47.527Z,10.70
2019-05-17T04:06:52.886Z,10.80
2019-05-17T04:07:57.621Z,10.80
2019-05-17T04:09:03.907Z,10.70
2019-05-17T04:10:09.318Z,10.80
2019-05-17T04:11:26.636Z,10.80
2019-05-17T04:12:23.119Z,10.80
2019-05-17T04:13:27.667Z,10.80
2019-05-17T04:14:33.530Z,10.80
2019-05-17T04:15:39.065Z,10.80
2019-05-17T04:16:43.700Z,10.80
2019-05-17T04:17:54.654Z,10.80
2019-05-17T04:19:02.815Z,10.80
2019-05-17T04:20:07.069Z,10.80
2019-05-17T04:21:12.542Z,10.80
2019-05-17T04:22:17.867Z,10.80
2019-05-17T04:23:23.187Z,10.80
2019-05-17T04:24:32.213Z,10.80
2019-05-17T04:25:38.803Z,10.80
2019-05-17T04:26:43.950Z,10.80
2019-05-17T04:27:49.249Z,10.80
2019-05-17T04:28:54.475Z,10.80
2019-05-17T04:29:59.497Z,10.80
2019-05-17T04:31:04.892Z,10.80
2019-05-17T04:32:12.683Z,10.80
2019-05-17T04:33:16.610Z,10.90
2019-05-17T04:34:22.426Z,10.90
2019-05-17T04:35:32.447Z,10.80
2019-05-17T04:36:34.266Z,10.90
2019-05-17T04:37:39.444Z,10.80
2019-05-17T04:38:44.156Z,10.80
2019-05-17T04:39:52.293Z,10.80
2019-05-17T04:40:55.799Z,10.80
2019-05-17T04:42:13.625Z,10.80
2019-05-17T04:43:17.357Z,10.80
2019-05-17T04:44:27.715Z,10.80
2019-05-17T04:45:33.686Z,10.80
2019-05-17T04:46:39.185Z,10.80
2019-05-17T04:47:44.821Z,10.90
2019-05-17T04:48:53.325Z,10.90
2019-05-17T04:49:56.959Z,10.80
2019-05-17T04:51:02.677Z,10.80
2019-05-17T04:52:07.785Z,10.90
2019-05-17T04:53:13.547Z,10.90
2019-05-17T04:54:19.051Z,10.90
2019-05-17T04:55:24.296Z,10.90
2019-05-17T04:56:29.072Z,10.90
2019-05-17T04:57:34.235Z,10.90
2019-05-17T04:58:39.135Z,10.90
2019-05-17T04:59:44.647Z,10.90
2019-05-17T05:00:49.394Z,10.90
2019-05-17T05:01:56.282Z,10.90
2019-05-17T05:03:03.834Z,10.90
2019-05-17T05:04:07.913Z,10.90
2019-05-17T05:05:13.534Z,10.90
2019-05-17T05:06:19.343Z,10.90
2019-05-17T05:07:23.936Z,10.90
2019-05-17T05:08:29.092Z,10.90
2019-05-17T05:09:34.150Z,10.90
2019-05-17T05:10:42.753Z,10.90
2019-05-17T05:11:59.542Z,10.90
2019-05-17T05:12:54.309Z,10.90
2019-05-17T05:14:02.877Z,10.90
2019-05-17T05:15:08.644Z,10.90
2019-05-17T05:16:13.675Z,10.90
2019-05-17T05:17:19.007Z,10.90
2019-05-17T05:18:23.739Z,10.90
2019-05-17T05:19:33.066Z,10.90
2019-05-17T05:20:39.181Z,10.90
2019-05-17T05:21:44.625Z,10.90
2019-05-17T05:22:52.607Z,10.90
2019-05-17T05:24:02.319Z,10.90
2019-05-17T05:25:06.447Z,10.90
2019-05-17T05:26:12.203Z,10.90
2019-05-17T05:27:16.915Z,10.90
2019-05-17T05:28:22.614Z,10.90
2019-05-17T05:29:27.391Z,10.90
2019-05-17T05:30:32.937Z,10.90
2019-05-17T05:31:37.988Z,10.90
2019-05-17T05:32:43.308Z,10.90
2019-05-17T05:33:47.962Z,10.90
2019-05-17T05:35:12.745Z,11.00
2019-05-17T05:36:17.609Z,11.00
2019-05-17T05:37:23.284Z,10.90
2019-05-17T05:38:28.020Z,10.90
2019-05-17T05:39:33.233Z,11.00
2019-05-17T05:40:38.179Z,11.00
2019-05-17T05:41:43.321Z,11.00
2019-05-17T05:42:47.947Z,11.00
2019-05-17T05:43:53.387Z,10.90
2019-05-17T05:44:58.051Z,11.00
2019-05-17T05:46:05.226Z,11.00
2019-05-17T05:47:11.649Z,11.00
2019-05-17T05:48:38.191Z,11.00
2019-05-17T05:49:43.358Z,11.00
2019-05-17T05:50:49.167Z,11.10
2019-05-17T05:51:54.200Z,11.10
2019-05-17T05:53:01.795Z,11.10
2019-05-17T05:54:09.078Z,11.10
2019-05-17T05:55:19.190Z,11.10
2019-05-17T05:56:22.003Z,11.10
2019-05-17T05:57:27.467Z,11.10
2019-05-17T05:58:32.403Z,11.10
2019-05-17T05:59:42.352Z,11.10
2019-05-17T06:00:49.163Z,11.10
2019-05-17T06:01:54.839Z,11.10
2019-05-17T06:02:59.723Z,11.10
2019-05-17T06:04:06.099Z,11.10
2019-05-17T06:05:14.681Z,11.10
2019-05-17T06:06:18.834Z,11.20
2019-05-17T06:07:23.502Z,11.20
2019-05-17T06:08:28.766Z,11.20
2019-05-17T06:09:33.411Z,11.10
2019-05-17T06:10:39.546Z,11.10
2019-05-17T06:11:46.054Z,11.20
2019-05-17T06:13:08.702Z,11.10
2019-05-17T06:14:13.572Z,11.10
2019-05-17T06:15:21.800Z,11.10
2019-05-17T06:16:26.617Z,11.10
2019-05-17T06:17:31.881Z,11.10
2019-05-17T06:18:36.544Z,11.10
2019-05-17T06:19:42.224Z,11.10
2019-05-17T06:20:46.991Z,11.10
2019-05-17T06:21:52.317Z,11.10
2019-05-17T06:22:56.905Z,11.10
2019-05-17T06:24:04.560Z,11.10
2019-05-17T06:25:14.659Z,11.10
2019-05-17T06:26:18.203Z,11.10
2019-05-17T06:27:22.960Z,11.10
2019-05-17T06:28:28.314Z,11.10
2019-05-17T06:29:33.371Z,11.20
2019-05-17T06:30:39.174Z,11.20
2019-05-17T06:31:43.744Z,11.20
2019-05-17T06:32:48.914Z,11.20
2019-05-17T06:33:53.958Z,11.20
2019-05-17T06:35:01.683Z,11.20
2019-05-17T06:36:07.017Z,11.20
2019-05-17T06:37:16.386Z,11.20
2019-05-17T06:38:22.261Z,11.20
2019-05-17T06:39:27.032Z,11.20
2019-05-17T06:40:32.661Z,11.20
2019-05-17T06:41:38.080Z,11.20
2019-05-17T06:42:45.683Z,11.20
2019-05-17T06:43:52.419Z,11.20
2019-05-17T06:44:57.239Z,11.20
2019-05-17T06:46:02.988Z,11.20
2019-05-17T06:47:11.720Z,11.30
2019-05-17T06:48:16.609Z,11.30
2019-05-17T06:49:22.409Z,11.20
2019-05-17T06:50:27.769Z,11.30
2019-05-17T06:51:32.484Z,11.30
2019-05-17T06:52:38.674Z,11.30
2019-05-17T06:53:43.730Z,11.30
2019-05-17T06:54:57.782Z,11.30
2019-05-17T06:56:02.784Z,11.30
2019-05-17T06:57:08.252Z,11.30
2019-05-17T06:58:14.303Z,11.30
2019-05-17T06:59:26.750Z,11.30
2019-05-17T07:00:31.430Z,11.40
2019-05-17T07:01:37.728Z,11.40
2019-05-17T07:02:42.512Z,11.40
2019-05-17T07:03:49.547Z,11.40
2019-05-17T07:04:58.368Z,11.40
2019-05-17T07:06:05.547Z,11.40
2019-05-17T07:07:30.515Z,11.40
2019-05-17T07:08:40.095Z,11.40
2019-05-17T07:09:44.259Z,11.40
2019-05-17T07:10:52.508Z,11.40
2019-05-17T07:11:59.546Z,11.40
2019-05-17T07:13:04.572Z,11.40
2019-05-17T07:14:12.309Z,11.40
2019-05-17T07:15:19.714Z,11.40
2019-05-17T07:16:25.820Z,11.40
2019-05-17T07:17:31.056Z,11.40
2019-05-17T07:18:39.840Z,11.40
2019-05-17T07:19:47.556Z,11.40
2019-05-17T07:20:52.271Z,11.40
2019-05-17T07:21:59.967Z,11.40
2019-05-17T07:23:04.219Z,11.40
2019-05-17T07:24:10.027Z,11.40
2019-05-17T07:25:15.048Z,11.40
2019-05-17T07:26:20.224Z,11.40
2019-05-17T07:27:37.797Z,11.40
2019-05-17T07:28:31.778Z,11.40
2019-05-17T07:29:36.881Z,11.40
2019-05-17T07:30:42.030Z,11.40
2019-05-17T07:31:46.663Z,11.50
2019-05-17T07:32:52.977Z,11.50
2019-05-17T07:33:59.705Z,11.50
2019-05-17T07:35:14.053Z,11.50
2019-05-17T07:36:19.694Z,11.50
2019-05-17T07:37:24.956Z,11.50
2019-05-17T07:38:30.271Z,11.50
2019-05-17T07:39:35.912Z,11.50
2019-05-17T07:40:40.621Z,11.50
2019-05-17T07:41:45.911Z,11.50
2019-05-17T07:42:50.895Z,11.50
2019-05-17T07:43:56.311Z,11.50
2019-05-17T07:45:01.025Z,11.50
2019-05-17T07:46:09.755Z,11.50
2019-05-17T07:47:14.456Z,11.50
2019-05-17T07:48:24.191Z,11.50
2019-05-17T07:49:29.327Z,11.50
2019-05-17T07:50:34.034Z,11.60
2019-05-17T07:51:41.861Z,11.50
2019-05-17T07:52:47.090Z,11.60
2019-05-17T07:53:52.219Z,11.60
2019-05-17T07:55:01.932Z,11.60
2019-05-17T07:56:10.261Z,11.60
2019-05-17T07:57:15.145Z,11.60
2019-05-17T07:58:23.113Z,11.60
2019-05-17T07:59:29.454Z,11.60
2019-05-17T08:00:40.020Z,11.60
2019-05-17T08:01:46.761Z,11.60
2019-05-17T08:02:52.084Z,11.60
2019-05-17T08:03:57.436Z,11.60
2019-05-17T08:05:02.222Z,11.60
2019-05-17T08:06:10.362Z,11.70
2019-05-17T08:07:14.823Z,11.60
2019-05-17T08:08:23.320Z,11.70
2019-05-17T08:09:30.031Z,11.70
2019-05-17T08:10:35.091Z,11.70
2019-05-17T08:11:40.084Z,11.70
2019-05-17T08:12:45.341Z,11.70
2019-05-17T08:13:50.527Z,11.70
2019-05-17T08:14:56.084Z,11.70
2019-05-17T08:16:00.913Z,11.70
2019-05-17T08:17:10.101Z,11.70
2019-05-17T08:18:12.467Z,11.70
2019-05-17T08:19:17.592Z,11.70
2019-05-17T08:20:22.338Z,11.70
2019-05-17T08:21:30.523Z,11.70
2019-05-17T08:22:39.574Z,11.70
2019-05-17T08:23:44.016Z,11.70
2019-05-17T08:24:49.353Z,11.70
2019-05-17T08:25:56.320Z,11.70
2019-05-17T08:27:01.129Z,11.70
2019-05-17T08:28:10.904Z,11.70
2019-05-17T08:29:15.898Z,11.70
2019-05-17T08:30:21.482Z,11.70
2019-05-17T08:31:26.095Z,11.70
2019-05-17T08:32:36.680Z,11.80
2019-05-17T08:33:41.373Z,11.80
2019-05-17T08:34:49.509Z,11.80
2019-05-17T08:35:53.191Z,11.80
2019-05-17T08:37:00.956Z,11.80
2019-05-17T08:38:05.184Z,11.80
2019-05-17T08:39:10.442Z,11.90
2019-05-17T08:40:15.503Z,11.90
2019-05-17T08:41:20.990Z,11.90
2019-05-17T08:42:26.200Z,11.90
2019-05-17T08:43:42.726Z,11.90
2019-05-17T08:44:39.475Z,11.90
2019-05-17T08:45:45.080Z,11.90
2019-05-17T08:46:51.182Z,12.00
2019-05-17T08:48:00.460Z,12.00
2019-05-17T08:49:05.145Z,12.00
2019-05-17T08:50:11.740Z,12.00
2019-05-17T08:51:19.630Z,12.00
2019-05-17T08:52:26.251Z,12.00
2019-05-17T08:53:33.213Z,12.00
2019-05-17T08:54:42.699Z,12.00
2019-05-17T08:55:45.407Z,12.00
2019-05-17T08:56:50.882Z,12.00
2019-05-17T08:57:55.555Z,12.00
2019-05-17T08:59:00.935Z,12.00
2019-05-17T09:00:06.555Z,12.00
2019-05-17T09:01:12.144Z,12.10
2019-05-17T09:02:16.902Z,12.10
2019-05-17T09:03:22.490Z,12.10
2019-05-17T09:04:29.762Z,12.10
2019-05-17T09:05:35.622Z,12.10
2019-05-17T09:06:41.388Z,12.10
2019-05-17T09:07:49.175Z,12.10
2019-05-17T09:08:56.278Z,12.10
2019-05-17T09:10:01.985Z,12.20
2019-05-17T09:11:09.912Z,12.20
2019-05-17T09:12:15.613Z,12.20
2019-05-17T09:13:21.819Z,12.30
2019-05-17T09:14:29.330Z,12.30
2019-05-17T09:15:36.662Z,12.30
2019-05-17T09:16:41.972Z,12.30
2019-05-17T09:17:47.096Z,12.30
2019-05-17T09:18:56.855Z,12.30
2019-05-17T09:20:01.968Z,12.30
2019-05-17T09:21:10.131Z,12.30
2019-05-17T09:22:15.089Z,12.30
2019-05-17T09:23:25.195Z,12.30
2019-05-17T09:24:30.446Z,12.30
2019-05-17T09:25:44.114Z,12.30
2019-05-17T09:26:50.109Z,12.70
2019-05-17T09:27:55.277Z,12.30
2019-05-17T09:29:02.615Z,12.20
2019-05-17T09:30:10.240Z,12.20
2019-05-17T09:31:20.221Z,12.30
2019-05-17T09:32:24.970Z,12.30
2019-05-17T09:33:30.234Z,12.20
2019-05-17T09:34:35.602Z,12.20
2019-05-17T09:35:41.039Z,12.30
2019-05-17T09:36:49.715Z,12.30
2019-05-17T09:37:57.316Z,12.30
2019-05-17T09:39:09.479Z,12.30
2019-05-17T09:40:14.266Z,12.30
2019-05-17T09:41:21.849Z,12.50
2019-05-17T09:42:29.836Z,12.30
2019-05-17T09:43:33.939Z,12.40
2019-05-17T09:44:40.389Z,12.30
2019-05-17T09:45:45.995Z,12.40
2019-05-17T09:46:50.938Z,12.40
2019-05-17T09:47:56.800Z,12.40
2019-05-17T09:49:01.521Z,12.30
2019-05-17T09:50:09.676Z,12.40
2019-05-17T09:51:13.515Z,12.40
2019-05-17T09:52:20.001Z,12.50
2019-05-17T09:53:24.831Z,12.30
2019-05-17T09:54:42.397Z,12.60
2019-05-17T09:55:40.443Z,12.60
2019-05-17T09:56:45.892Z,12.70
2019-05-17T09:57:50.872Z,12.80
2019-05-17T09:58:56.574Z,12.80
2019-05-17T10:00:01.580Z,12.80
2019-05-17T10:01:09.310Z,13.00
2019-05-17T10:02:13.305Z,12.90
2019-05-17T10:03:23.306Z,12.90
2019-05-17T10:04:25.327Z,13.00
2019-05-17T10:05:40.555Z,13.00
2019-05-17T10:06:44.418Z,13.00
2019-05-17T10:07:50.960Z,13.00
2019-05-17T10:09:00.082Z,13.00
2019-05-17T10:10:07.123Z,13.00
2019-05-17T10:11:15.005Z,13.20
2019-05-17T10:12:21.695Z,12.90
2019-05-17T10:13:27.089Z,12.90
2019-05-17T10:14:43.834Z,12.80
2019-05-17T10:15:50.065Z,12.80
2019-05-17T10:16:57.131Z,12.70
2019-05-17T10:18:06.804Z,12.70
2019-05-17T10:19:23.399Z,12.70
2019-05-17T10:20:29.138Z,12.70
2019-05-17T10:21:40.048Z,12.70
2019-05-17T10:22:46.807Z,12.60
2019-05-17T10:24:02.356Z,13.00
2019-05-17T10:25:13.751Z,12.60
2019-05-17T10:26:19.746Z,12.70
2019-05-17T10:27:34.209Z,12.70
2019-05-17T10:28:46.106Z,12.70
2019-05-17T10:29:55.865Z,12.50
2019-05-17T10:31:02.298Z,12.70
2019-05-17T10:32:07.474Z,12.70
2019-05-17T10:33:19.992Z,12.70
2019-05-17T10:34:24.725Z,12.70
2019-05-17T10:35:34.955Z,12.90
2019-05-17T10:36:50.641Z,12.80
2019-05-17T10:38:01.466Z,12.70
2019-05-17T10:39:19.354Z,12.70
2019-05-17T10:40:25.267Z,12.70
2019-05-17T10:41:31.091Z,12.60
2019-05-17T10:42:39.601Z,12.70
2019-05-17T10:43:50.131Z,12.70
2019-05-17T10:44:59.968Z,12.90
2019-05-17T10:46:15.256Z,12.70
2019-05-17T10:47:26.265Z,12.80
2019-05-17T10:48:41.070Z,12.90
2019-05-17T10:49:45.904Z,12.90
2019-05-17T10:50:51.240Z,12.90
2019-05-17T10:52:20.329Z,13.10
2019-05-17T10:53:21.695Z,13.00
2019-05-17T10:54:31.191Z,13.10
2019-05-17T10:55:39.477Z,13.10
2019-05-17T10:57:05.173Z,13.10
2019-05-17T10:58:10.464Z,13.10
2019-05-17T10:59:20.190Z,13.00
2019-05-17T11:00:23.113Z,13.00
2019-05-17T11:01:30.559Z,13.00
2019-05-17T11:02:35.505Z,13.00
2019-05-17T11:03:42.130Z,13.10
2019-05-17T11:04:50.527Z,13.10
2019-05-17T11:05:55.936Z,13.00
2019-05-17T11:07:01.034Z,13.10
2019-05-17T11:08:06.611Z,13.00
2019-05-17T11:09:13.782Z,13.10
2019-05-17T11:10:20.812Z,13.10
2019-05-17T11:11:26.155Z,13.10
2019-05-17T11:12:34.701Z,13.10
2019-05-17T11:13:42.713Z,13.20
2019-05-17T11:14:55.784Z,13.20
2019-05-17T11:15:56.569Z,13.20
2019-05-17T11:17:12.358Z,13.20
2019-05-17T11:18:16.399Z,13.20
2019-05-17T11:19:21.904Z,13.20
2019-05-17T11:20:27.020Z,13.50
2019-05-17T11:21:32.305Z,13.30
2019-05-17T11:22:37.350Z,13.30
2019-05-17T11:23:52.662Z,13.30
2019-05-17T11:25:03.913Z,13.30
2019-05-17T11:26:16.826Z,13.20
2019-05-17T11:27:29.184Z,13.20
2019-05-17T11:28:38.256Z,13.20
2019-05-17T11:29:52.140Z,13.20
2019-05-17T11:31:06.961Z,13.20
2019-05-17T11:32:36.751Z,13.20
2019-05-17T11:33:43.095Z,13.20
2019-05-17T11:34:57.184Z,13.20
2019-05-17T11:35:59.987Z,13.30
2019-05-17T11:37:13.719Z,13.20
2019-05-17T11:38:34.623Z,13.40
2019-05-17T11:39:41.373Z,13.20
2019-05-17T11:41:18.131Z,13.30
2019-05-17T11:41:57.260Z,13.30
2019-05-17T11:43:12.780Z,13.30
2019-05-17T11:44:24.759Z,13.30
2019-05-17T11:45:34.459Z,13.40
2019-05-17T11:46:41.232Z,13.40
2019-05-17T11:47:52.918Z,13.40
2019-05-17T11:49:04.680Z,13.60
2019-05-17T11:50:11.665Z,13.40
2019-05-17T11:51:16.500Z,13.40
2019-05-17T11:52:21.623Z,13.50
2019-05-17T11:53:30.437Z,13.50
2019-05-17T11:54:41.819Z,13.60
2019-05-17T11:55:53.683Z,13.70
2019-05-17T11:56:59.273Z,13.70
2019-05-17T11:58:09.852Z,13.80
2019-05-17T11:59:15.453Z,13.70
2019-05-17T12:00:20.433Z,13.80
2019-05-17T12:01:31.238Z,13.80
2019-05-17T12:02:36.355Z,14.00
2019-05-17T12:03:41.551Z,13.70
2019-05-17T12:04:46.595Z,13.80
2019-05-17T12:05:51.834Z,13.80
2019-05-17T12:06:57.159Z,13.60
2019-05-17T12:08:02.749Z,13.80
2019-05-17T12:09:11.449Z,13.70
2019-05-17T12:10:17.226Z,13.70
2019-05-17T12:11:21.943Z,13.70
2019-05-17T12:12:27.355Z,13.70
2019-05-17T12:13:32.172Z,13.70
2019-05-17T12:14:37.617Z,13.60
2019-05-17T12:15:45.344Z,13.70
2019-05-17T12:16:49.887Z,13.70
2019-05-17T12:17:54.579Z,13.80
2019-05-17T12:19:00.491Z,13.80
2019-05-17T12:20:05.661Z,13.80
2019-05-17T12:21:11.181Z,13.90
2019-05-17T12:22:21.828Z,14.10
2019-05-17T12:23:30.918Z,13.90
2019-05-17T12:24:35.558Z,13.90
2019-05-17T12:25:41.391Z,13.90
2019-05-17T12:26:53.196Z,13.90
2019-05-17T12:28:01.118Z,13.90
2019-05-17T12:29:08.776Z,14.00
2019-05-17T12:30:15.701Z,14.00
2019-05-17T12:31:23.057Z,13.90
2019-05-17T12:32:31.463Z,13.90
2019-05-17T12:33:38.999Z,13.90
2019-05-17T12:34:44.685Z,13.80
2019-05-17T12:35:50.188Z,13.90
2019-05-17T12:36:56.159Z,14.00
2019-05-17T12:38:08.093Z,14.00
2019-05-17T12:39:13.774Z,14.10
2019-05-17T12:40:19.516Z,14.10
2019-05-17T12:41:24.906Z,14.10
2019-05-17T12:42:32.266Z,14.10
2019-05-17T12:43:37.473Z,14.20
2019-05-17T12:44:48.528Z,14.30
2019-05-17T12:46:00.837Z,14.30
2019-05-17T12:47:00.266Z,14.40
2019-05-17T12:48:11.440Z,14.30
2019-05-17T12:49:16.103Z,14.50
2019-05-17T12:50:24.294Z,14.40
2019-05-17T12:51:32.397Z,14.40
2019-05-17T12:52:35.899Z,14.30
2019-05-17T12:53:40.800Z,14.40
2019-05-17T12:54:46.193Z,14.40
2019-05-17T12:55:51.183Z,14.50
2019-05-17T12:56:59.801Z,14.40
2019-05-17T12:58:07.189Z,14.80
2019-05-17T12:59:12.504Z,14.40
2019-05-17T13:00:17.825Z,14.30
2019-05-17T13:01:23.291Z,14.40
2019-05-17T13:02:28.307Z,14.40
2019-05-17T13:03:37.737Z,14.30
2019-05-17T13:04:44.799Z,14.40
2019-05-17T13:05:50.368Z,14.40
2019-05-17T13:06:58.815Z,14.40
2019-05-17T13:08:10.788Z,14.50
2019-05-17T13:09:15.733Z,14.40
2019-05-17T13:10:37.416Z,14.50
2019-05-17T13:11:44.167Z,14.00
2019-05-17T13:12:49.317Z,14.50
2019-05-17T13:13:55.140Z,14.60
2019-05-17T13:15:00.821Z,14.50
2019-05-17T13:16:17.504Z,14.60
2019-05-17T13:17:12.593Z,14.60
2019-05-17T13:18:17.420Z,14.60
2019-05-17T13:19:25.415Z,14.60
2019-05-17T13:20:31.967Z,14.70
2019-05-17T13:21:37.167Z,14.60
2019-05-17T13:22:42.618Z,14.70
2019-05-17T13:23:47.984Z,14.80
2019-05-17T13:25:00.005Z,14.70
2019-05-17T13:26:05.405Z,14.80
2019-05-17T13:27:10.338Z,14.90
2019-05-17T13:28:18.684Z,14.90
2019-05-17T13:29:23.450Z,14.90
2019-05-17T13:30:29.124Z,14.90
2019-05-17T13:31:35.965Z,15.00
2019-05-17T13:32:41.965Z,15.10
2019-05-17T13:33:46.853Z,15.10
2019-05-17T13:34:52.178Z,15.30
2019-05-17T13:35:57.420Z,15.00
2019-05-17T13:37:02.711Z,15.20
2019-05-17T13:38:07.585Z,15.00
2019-05-17T13:39:14.108Z,15.00
2019-05-17T13:40:24.029Z,15.00
2019-05-17T13:41:29.420Z,15.00
2019-05-17T13:42:35.663Z,15.00
2019-05-17T13:43:40.897Z,15.00
2019-05-17T13:44:45.753Z,15.00
2019-05-17T13:45:52.170Z,15.00
2019-05-17T13:46:57.164Z,15.00
2019-05-17T13:48:07.907Z,15.10
2019-05-17T13:49:16.195Z,15.10
2019-05-17T13:50:26.092Z,15.10
2019-05-17T13:51:33.080Z,15.30
2019-05-17T13:52:38.114Z,15.20
2019-05-17T13:53:43.237Z,15.20
2019-05-17T13:54:48.676Z,15.20
2019-05-17T13:55:54.716Z,15.20
2019-05-17T13:57:00.740Z,15.20
2019-05-17T13:58:09.230Z,15.30
2019-05-17T13:59:14.735Z,15.50
2019-05-17T14:00:20.995Z,15.40
2019-05-17T14:01:29.236Z,15.50
2019-05-17T14:02:34.336Z,15.50
2019-05-17T14:03:44.801Z,15.50
2019-05-17T14:04:49.978Z,15.60
2019-05-17T14:05:58.107Z,15.60
2019-05-17T14:07:05.281Z,15.70
2019-05-17T14:08:10.715Z,15.80
2019-05-17T14:09:38.517Z,15.50
2019-05-17T14:10:49.813Z,15.60
2019-05-17T14:12:01.168Z,15.60
2019-05-17T14:13:14.926Z,15.60
2019-05-17T14:14:28.616Z,15.70
2019-05-17T14:15:35.741Z,15.70
2019-05-17T14:16:50.637Z,15.70
2019-05-17T14:18:02.443Z,15.70
2019-05-17T14:19:17.177Z,15.70
2019-05-17T14:20:37.718Z,15.60
2019-05-17T14:21:47.364Z,15.70